Tetraktys — OS6207 — position and weather

sailwx.info

Track history (hours):
 
Tides and Currents Weather Stations Pressure Air Temp Water Temp Dewpoint Dewpoint Depression Visibility Wind Speed Wind Dir Waves Ship Positions

Tetraktys

Last reported at 2014-Aug-17 16:06 UTC. Time now 2014-Aug-20 14:38 UTC.
Position N 47°44' W 003°22'.

Length 9 m.

Type: Sailing vessel. MMSI: 205620700.

Date/timePositionNaut miles runAvg speedWind from/ knotsBaromVisibWave heightAir tempDewpointWater temp
2014-Aug-17 16:06N 47°44' W 003°22'0 0.0
2014-Aug-17 15:33N 47°44' W 003°22'0 0.0
2014-Aug-17 14:33N 47°44' W 003°22'0 0.0
2014-Aug-17 13:33N 47°44' W 003°22'0 0.0
2014-Aug-17 12:33N 47°44' W 003°22'0 0.0
2014-Aug-17 11:33N 47°44' W 003°22'0 0.0
2014-Aug-16 19:32N 47°44' W 003°22'0 0.0
2014-Aug-16 18:32N 47°44' W 003°22'0 0.0
2014-Aug-16 17:32N 47°44' W 003°22'0 0.0
2014-Aug-16 16:31N 47°44' W 003°22'0 0.0
2014-Aug-16 15:31N 47°44' W 003°22'0 0.0
2014-Aug-16 14:31N 47°44' W 003°22'0 0.0
2014-Aug-16 09:26N 47°44' W 003°22'0 0.0
2014-Aug-16 08:32N 47°44' W 003°22'0 0.0
2014-Aug-16 07:33N 47°44' W 003°22'0 0.0
2014-Aug-16 06:33N 47°44' W 003°22'2 2.0
2014-Aug-16 05:33N 47°42' W 003°23'58 6.4
2014-Aug-15 20:33N 47°58' W 004°45'8 8.5
2014-Aug-15 19:33N 48°06' W 004°49'8 7.9
2014-Aug-15 18:33N 48°14' W 004°49'7 7.0
2014-Aug-15 17:33N 48°21' W 004°50'6 5.8
2014-Aug-15 16:33N 48°26' W 004°51'196 4.1
2014-Aug-13 17:04N 50°46' W 001°17'  
2014-Aug-07 20:33N 50°53' W 001°23'  
Track history (hours):
 
Tides and Currents Weather Stations Pressure Air Temp Water Temp Dewpoint Dewpoint Depression Visibility Wind Speed Wind Dir Waves Ship Positions

Tetraktys

Last reported at 2014-Aug-17 16:06 UTC. Time now 2014-Aug-20 14:38 UTC.
Position N 47°44' W 003°22'.

Length 9 m.

Type: Sailing vessel. MMSI: 205620700.

Date/timePositionNaut miles runAvg speedWind from/ knotsBaromVisibWave heightAir tempDewpointWater temp
2014-Aug-17 16:06N 47°44' W 003°22'0 0.0
2014-Aug-17 15:33N 47°44' W 003°22'0 0.0
2014-Aug-17 14:33N 47°44' W 003°22'0 0.0
2014-Aug-17 13:33N 47°44' W 003°22'0 0.0
2014-Aug-17 12:33N 47°44' W 003°22'0 0.0
2014-Aug-17 11:33N 47°44' W 003°22'0 0.0
2014-Aug-16 19:32N 47°44' W 003°22'0 0.0
2014-Aug-16 18:32N 47°44' W 003°22'0 0.0
2014-Aug-16 17:32N 47°44' W 003°22'0 0.0
2014-Aug-16 16:31N 47°44' W 003°22'0 0.0
2014-Aug-16 15:31N 47°44' W 003°22'0 0.0
2014-Aug-16 14:31N 47°44' W 003°22'0 0.0
2014-Aug-16 09:26N 47°44' W 003°22'0 0.0
2014-Aug-16 08:32N 47°44' W 003°22'0 0.0
2014-Aug-16 07:33N 47°44' W 003°22'0 0.0
2014-Aug-16 06:33N 47°44' W 003°22'2 2.0
2014-Aug-16 05:33N 47°42' W 003°23'58 6.4
2014-Aug-15 20:33N 47°58' W 004°45'8 8.5
2014-Aug-15 19:33N 48°06' W 004°49'8 7.9
2014-Aug-15 18:33N 48°14' W 004°49'7 7.0
2014-Aug-15 17:33N 48°21' W 004°50'6 5.8
2014-Aug-15 16:33N 48°26' W 004°51'196 4.1
2014-Aug-13 17:04N 50°46' W 001°17'  
2014-Aug-07 20:33N 50°53' W 001°23'  

Dump ship's entire track history